Time;durP1;ratioP1;P1;durP2;ratioP2;P2;SDS_P1;SDS_P2;PMS_P1;PMS_P2;Temp;Humidity;BMP_temperature;BMP_pressure;BME280_temperature;BME280_humidity;BME280_pressure;Samples;Min_cycle;Max_cycle;Signal;HPM_P1;HPM_P2
2022/03/24 00:01:23;;;;;;;;;;;7.00;99.90;;;;;;5022697;28;19933;-75
2022/03/24 00:03:50;;;;;;;;;;;7.00;99.90;;;;;;5024273;28;19925;-78
2022/03/24 00:06:16;;;;;;;;;;;6.90;99.90;;;;;;5025790;28;19932;-75
2022/03/24 00:08:43;;;;;;;;;;;6.90;99.90;;;;;;5021788;28;19933;-75
2022/03/24 00:11:09;;;;;;;;;;;6.80;99.90;;;;;;5025024;28;19921;-75
2022/03/24 00:13:37;;;;;;;;;;;6.80;99.90;;;;;;5033249;28;19925;-74
2022/03/24 00:16:03;;;;;;;;;;;6.80;99.90;;;;;;5014323;28;19956;-75
2022/03/24 00:18:32;;;;;;;;;;;6.80;99.90;;;;;;5012576;28;19925;-75
2022/03/24 00:20:58;;;;;;;;;;;6.80;99.90;;;;;;5029665;28;19936;-75
2022/03/24 00:23:25;;;;;;;;;;;6.80;99.90;;;;;;5022187;28;19925;-75
2022/03/24 00:25:51;;;;;;;;;;;6.80;99.90;;;;;;5027871;28;19926;-78
2022/03/24 00:28:18;;;;;;;;;;;6.90;99.90;;;;;;5009732;28;19929;-75
2022/03/24 00:30:44;;;;;;;;;;;7.00;99.90;;;;;;5019489;28;19929;-75
2022/03/24 00:33:11;;;;;;;;;;;6.90;99.90;;;;;;5025894;28;19987;-76
2022/03/24 00:35:38;;;;;;;;;;;6.90;99.90;;;;;;5014748;28;19980;-76
2022/03/24 00:38:05;;;;;;;;;;;6.70;99.90;;;;;;5029541;28;19940;-75
2022/03/24 00:40:32;;;;;;;;;;;6.60;99.90;;;;;;5015618;28;19976;-74
2022/03/24 00:42:59;;;;;;;;;;;6.40;99.90;;;;;;5031511;28;19932;-75
2022/03/24 00:45:25;;;;;;;;;;;6.50;99.90;;;;;;5024117;28;19955;-75
2022/03/24 00:47:52;;;;;;;;;;;6.40;99.90;;;;;;5005147;28;20400;-78
2022/03/24 00:50:18;;;;;;;;;;;6.40;99.90;;;;;;5014976;28;19925;-75
2022/03/24 00:52:45;;;;;;;;;;;6.40;99.90;;;;;;5030835;28;19929;-75
2022/03/24 00:55:12;;;;;;;;;;;6.40;99.90;;;;;;5027507;28;19968;-74
2022/03/24 00:57:39;;;;;;;;;;;6.40;99.90;;;;;;5015478;28;20368;-75
2022/03/24 01:00:06;;;;;;;;;;;6.40;99.90;;;;;;5030380;28;19925;-75
2022/03/24 01:02:32;;;;;;;;;;;6.30;99.90;;;;;;5025149;28;19936;-75
2022/03/24 01:05:01;;;;;;;;;;;6.40;99.90;;;;;;5022075;28;20002;-75
2022/03/24 01:07:28;;;;;;;;;;;6.30;99.90;;;;;;5027894;28;19947;-75
2022/03/24 01:09:54;;;;;;;;;;;6.40;99.90;;;;;;5009491;28;19929;-79
2022/03/24 01:12:22;;;;;;;;;;;6.40;99.90;;;;;;5016678;28;19934;-74
2022/03/24 01:14:49;;;;;;;;;;;6.40;99.90;;;;;;5011658;28;19932;-76
2022/03/24 01:17:16;;;;;;;;;;;6.30;99.90;;;;;;4993822;28;19926;-75
2022/03/24 01:19:42;;;;;;;;;;;6.30;99.90;;;;;;4995812;28;21266;-76
2022/03/24 01:22:09;;;;;;;;;;;6.10;99.90;;;;;;5002599;28;19925;-75
2022/03/24 01:24:37;;;;;;;;;;;6.10;99.90;;;;;;5001299;28;19926;-75
2022/03/24 01:27:04;;;;;;;;;;;6.10;99.90;;;;;;5004892;28;19988;-75
2022/03/24 01:29:31;;;;;;;;;;;6.00;99.90;;;;;;5006995;28;19926;-76
2022/03/24 01:31:58;;;;;;;;;;;6.00;99.90;;;;;;5010233;28;19932;-75
2022/03/24 01:34:25;;;;;;;;;;;6.00;99.90;;;;;;5005333;28;19925;-75
2022/03/24 01:36:52;;;;;;;;;;;6.00;99.90;;;;;;4995220;28;19926;-74
2022/03/24 01:39:18;;;;;;;;;;;6.00;99.90;;;;;;5005291;28;19926;-76
2022/03/24 01:41:45;;;;;;;;;;;6.00;99.90;;;;;;5012872;28;19933;-75
2022/03/24 01:44:12;;;;;;;;;;;6.10;99.90;;;;;;5001271;28;19932;-75
2022/03/24 01:46:38;;;;;;;;;;;6.00;99.90;;;;;;5010969;28;19933;-75
2022/03/24 01:49:05;;;;;;;;;;;5.90;99.90;;;;;;5001963;28;19932;-75
2022/03/24 01:51:31;;;;;;;;;;;5.90;99.90;;;;;;5007966;28;19925;-75
2022/03/24 01:53:59;;;;;;;;;;;5.90;99.90;;;;;;5007657;28;19926;-76
2022/03/24 01:56:26;;;;;;;;;;;5.90;99.90;;;;;;5000563;28;19932;-74
2022/03/24 01:58:52;;;;;;;;;;;5.90;99.90;;;;;;5002300;28;19932;-74
2022/03/24 02:01:21;;;;;;;;;;;5.80;99.90;;;;;;4995115;28;19937;-75
2022/03/24 02:03:48;;;;;;;;;;;5.70;99.90;;;;;;5003086;28;19925;-75
2022/03/24 02:06:14;;;;;;;;;;;5.70;99.90;;;;;;5008838;28;19937;-75
2022/03/24 02:08:41;;;;;;;;;;;5.70;99.90;;;;;;5009996;28;19925;-75
2022/03/24 02:11:07;;;;;;;;;;;5.70;99.90;;;;;;5024153;28;19925;-75
2022/03/24 02:13:35;;;;;;;;;;;5.60;99.90;;;;;;5018604;28;19929;-75
2022/03/24 02:16:02;;;;;;;;;;;5.60;99.90;;;;;;5019080;28;19933;-75
2022/03/24 02:18:31;;;;;;;;;;;5.60;99.90;;;;;;5026598;28;19925;-75
2022/03/24 02:20:58;;;;;;;;;;;5.60;99.90;;;;;;5026795;28;19932;-79
2022/03/24 02:23:24;;;;;;;;;;;5.60;99.90;;;;;;5023438;28;19929;-76
2022/03/24 02:25:52;;;;;;;;;;;5.50;99.90;;;;;;5031743;28;19929;-76
2022/03/24 02:28:19;;;;;;;;;;;5.50;99.90;;;;;;5027646;28;20426;-74
2022/03/24 02:30:47;;;;;;;;;;;5.50;99.90;;;;;;5025102;28;20371;-75
2022/03/24 02:33:14;;;;;;;;;;;5.50;99.90;;;;;;5028039;28;20025;-75
2022/03/24 02:35:40;;;;;;;;;;;5.50;99.90;;;;;;4995932;28;19925;-76
2022/03/24 02:38:07;;;;;;;;;;;5.50;99.90;;;;;;5021623;28;19925;-74
2022/03/24 02:40:35;;;;;;;;;;;5.50;99.90;;;;;;5020826;28;19932;-75
2022/03/24 02:43:02;;;;;;;;;;;5.50;99.90;;;;;;5007511;28;19925;-78
2022/03/24 02:45:28;;;;;;;;;;;5.40;99.90;;;;;;5025598;28;19948;-76
2022/03/24 02:47:55;;;;;;;;;;;5.40;99.90;;;;;;5016350;28;19976;-75
2022/03/24 02:50:22;;;;;;;;;;;5.50;99.90;;;;;;5021115;28;19925;-75
2022/03/24 02:52:48;;;;;;;;;;;5.50;99.90;;;;;;5019674;28;19969;-75
2022/03/24 02:55:15;;;;;;;;;;;5.50;99.90;;;;;;5028607;28;20360;-75
2022/03/24 02:57:42;;;;;;;;;;;5.40;99.90;;;;;;4997443;28;19947;-78
2022/03/24 03:00:08;;;;;;;;;;;5.40;99.90;;;;;;5015365;28;19933;-75
2022/03/24 03:02:35;;;;;;;;;;;5.40;99.90;;;;;;5020964;28;19929;-76
2022/03/24 03:05:03;;;;;;;;;;;5.30;99.90;;;;;;5029515;28;19925;-79
2022/03/24 03:07:30;;;;;;;;;;;5.30;99.90;;;;;;5020301;28;19972;-75
2022/03/24 03:09:56;;;;;;;;;;;5.30;99.90;;;;;;5003292;28;19929;-75
2022/03/24 03:12:26;;;;;;;;;;;5.20;99.90;;;;;;5015577;28;20001;-76
2022/03/24 03:14:52;;;;;;;;;;;5.20;99.90;;;;;;5018636;28;19932;-74
2022/03/24 03:17:19;;;;;;;;;;;5.20;99.90;;;;;;5017414;28;19925;-76
2022/03/24 03:19:46;;;;;;;;;;;5.20;99.90;;;;;;5027488;28;19929;-74
2022/03/24 03:22:13;;;;;;;;;;;5.20;99.90;;;;;;5022383;28;19929;-76
2022/03/24 03:24:40;;;;;;;;;;;5.10;99.90;;;;;;5025395;28;19933;-76
2022/03/24 03:27:07;;;;;;;;;;;5.20;99.90;;;;;;5011343;28;19925;-78
2022/03/24 03:29:33;;;;;;;;;;;5.20;99.90;;;;;;5019882;28;19932;-75
2022/03/24 03:32:00;;;;;;;;;;;5.10;99.90;;;;;;5020527;28;19931;-75
2022/03/24 03:34:27;;;;;;;;;;;5.10;99.90;;;;;;5017296;28;20381;-76
2022/03/24 03:36:54;;;;;;;;;;;5.10;99.90;;;;;;5026594;28;19925;-76
2022/03/24 03:39:20;;;;;;;;;;;5.10;99.90;;;;;;5010318;28;19972;-75
2022/03/24 03:41:47;;;;;;;;;;;5.10;99.90;;;;;;5030325;28;20380;-76
2022/03/24 03:44:13;;;;;;;;;;;5.00;99.90;;;;;;5034377;28;19929;-76
2022/03/24 03:46:40;;;;;;;;;;;5.00;99.90;;;;;;5020128;28;19931;-75
2022/03/24 03:49:08;;;;;;;;;;;4.90;99.90;;;;;;5019436;28;19932;-75
2022/03/24 03:51:34;;;;;;;;;;;4.90;99.90;;;;;;5009144;28;20389;-75
2022/03/24 03:54:01;;;;;;;;;;;4.90;99.90;;;;;;5010574;28;20388;-74
2022/03/24 03:56:28;;;;;;;;;;;4.90;99.90;;;;;;5028260;28;19929;-74
2022/03/24 03:58:54;;;;;;;;;;;4.90;99.90;;;;;;5023392;28;19925;-75
2022/03/24 04:01:21;;;;;;;;;;;4.90;99.90;;;;;;5014265;28;19925;-75
2022/03/24 04:03:48;;;;;;;;;;;4.80;99.90;;;;;;5030422;28;19925;-75
2022/03/24 04:06:14;;;;;;;;;;;4.70;99.90;;;;;;5020720;28;20399;-75
2022/03/24 04:08:41;;;;;;;;;;;4.70;99.90;;;;;;5023310;28;20373;-76
2022/03/24 04:11:07;;;;;;;;;;;4.70;99.90;;;;;;5028362;28;20364;-77
2022/03/24 04:13:34;;;;;;;;;;;4.60;99.90;;;;;;5010876;28;19929;-75
2022/03/24 04:16:01;;;;;;;;;;;4.60;99.90;;;;;;5024833;28;20415;-76
2022/03/24 04:18:27;;;;;;;;;;;4.60;99.90;;;;;;5014475;28;19925;-76
2022/03/24 04:20:54;;;;;;;;;;;4.60;99.90;;;;;;5028127;28;19932;-75
2022/03/24 04:23:21;;;;;;;;;;;4.60;99.90;;;;;;5022793;28;20382;-75
2022/03/24 04:25:48;;;;;;;;;;;4.60;99.90;;;;;;5006586;28;20012;-76
2022/03/24 04:28:14;;;;;;;;;;;4.60;99.90;;;;;;5001809;28;19925;-75
2022/03/24 04:30:41;;;;;;;;;;;4.60;99.90;;;;;;5016433;28;19929;-75
2022/03/24 04:33:07;;;;;;;;;;;4.60;99.90;;;;;;5028658;28;19925;-78
2022/03/24 04:35:34;;;;;;;;;;;4.70;99.90;;;;;;5008672;28;20296;-75
2022/03/24 04:38:02;;;;;;;;;;;4.70;99.90;;;;;;5024366;28;19925;-75
2022/03/24 04:40:28;;;;;;;;;;;4.70;99.90;;;;;;5025412;28;20008;-75
2022/03/24 04:42:55;;;;;;;;;;;4.70;99.90;;;;;;5017382;28;20319;-75
2022/03/24 04:45:21;;;;;;;;;;;4.70;99.90;;;;;;5026449;28;20365;-75
2022/03/24 04:47:48;;;;;;;;;;;4.70;99.90;;;;;;5024806;28;19933;-75
2022/03/24 04:50:15;;;;;;;;;;;4.60;99.90;;;;;;5026682;28;20451;-75
2022/03/24 04:52:41;;;;;;;;;;;4.60;99.90;;;;;;5014264;28;20303;-75
2022/03/24 04:55:09;;;;;;;;;;;4.60;99.90;;;;;;5010815;28;19929;-78
2022/03/24 04:57:35;;;;;;;;;;;4.60;99.90;;;;;;4998459;28;19976;-75
2022/03/24 05:00:02;;;;;;;;;;;4.60;99.90;;;;;;5013016;28;19925;-75
2022/03/24 05:02:29;;;;;;;;;;;4.70;99.90;;;;;;5018905;28;20008;-74
2022/03/24 05:04:55;;;;;;;;;;;4.70;99.90;;;;;;5009472;28;19932;-77
2022/03/24 05:07:22;;;;;;;;;;;4.70;99.90;;;;;;5026127;28;19932;-75
2022/03/24 05:09:50;;;;;;;;;;;4.70;99.90;;;;;;5010227;28;19936;-75
2022/03/24 05:12:16;;;;;;;;;;;4.70;99.90;;;;;;5019544;28;19995;-75
2022/03/24 05:14:43;;;;;;;;;;;4.70;99.90;;;;;;5016875;28;19925;-75
2022/03/24 05:17:09;;;;;;;;;;;4.70;99.90;;;;;;5024829;28;20380;-74
2022/03/24 05:19:36;;;;;;;;;;;4.60;99.90;;;;;;5030710;28;20431;-75
2022/03/24 05:22:02;;;;;;;;;;;4.60;99.90;;;;;;5024561;28;19929;-76
2022/03/24 05:24:29;;;;;;;;;;;4.60;99.90;;;;;;5028000;28;19925;-76
2022/03/24 05:26:56;;;;;;;;;;;4.60;99.90;;;;;;5027541;28;19933;-75
2022/03/24 05:29:22;;;;;;;;;;;4.50;99.90;;;;;;5020219;28;19925;-75
2022/03/24 05:31:49;;;;;;;;;;;4.60;99.90;;;;;;5030802;28;19936;-75
2022/03/24 05:34:15;;;;;;;;;;;4.50;99.90;;;;;;5022318;28;19932;-76
2022/03/24 05:36:42;;;;;;;;;;;4.50;99.90;;;;;;5025933;28;19933;-74
2022/03/24 05:39:09;;;;;;;;;;;4.50;99.90;;;;;;5017653;28;19935;-75
2022/03/24 05:41:36;;;;;;;;;;;4.50;99.90;;;;;;5004131;28;20417;-73
2022/03/24 05:44:06;;;;;;;;;;;4.50;99.90;;;;;;5021412;28;19988;-74
2022/03/24 05:46:32;;;;;;;;;;;4.50;99.90;;;;;;5005236;28;19932;-75
2022/03/24 05:48:59;;;;;;;;;;;4.50;99.90;;;;;;5024342;28;19926;-74
2022/03/24 05:51:25;;;;;;;;;;;4.60;99.90;;;;;;5013108;28;19929;-74
2022/03/24 05:53:52;;;;;;;;;;;4.50;99.90;;;;;;5017905;28;19987;-75
2022/03/24 05:56:19;;;;;;;;;;;4.60;99.90;;;;;;5000460;28;19932;-75
2022/03/24 05:58:45;;;;;;;;;;;4.70;99.90;;;;;;4998898;28;20079;-75
2022/03/24 06:01:13;;;;;;;;;;;4.80;99.90;;;;;;4998248;28;20650;-75
2022/03/24 06:03:42;;;;;;;;;;;4.80;99.90;;;;;;5002938;28;19988;-76
2022/03/24 06:06:09;;;;;;;;;;;4.80;99.90;;;;;;5021038;28;20376;-75
2022/03/24 06:08:36;;;;;;;;;;;4.80;99.90;;;;;;4993143;28;20680;-75
2022/03/24 06:11:03;;;;;;;;;;;4.80;99.90;;;;;;4996630;28;19925;-75
2022/03/24 06:13:29;;;;;;;;;;;4.90;99.90;;;;;;4995786;28;19972;-76
2022/03/24 06:15:56;;;;;;;;;;;5.00;99.90;;;;;;5015425;28;19925;-75
2022/03/24 06:18:22;;;;;;;;;;;5.20;99.90;;;;;;4995190;28;19925;-75
2022/03/24 06:20:49;;;;;;;;;;;5.30;99.90;;;;;;4999191;28;19929;-75
2022/03/24 06:23:15;;;;;;;;;;;5.50;99.90;;;;;;4995550;28;20387;-77
2022/03/24 06:25:42;;;;;;;;;;;5.70;99.90;;;;;;4996206;28;19932;-75
2022/03/24 06:28:09;;;;;;;;;;;5.80;99.90;;;;;;4997731;28;19925;-75
2022/03/24 06:30:35;;;;;;;;;;;6.00;99.90;;;;;;4997675;28;19936;-76
2022/03/24 06:33:02;;;;;;;;;;;6.10;99.90;;;;;;5013510;28;19925;-75
2022/03/24 06:35:28;;;;;;;;;;;6.30;99.90;;;;;;5011443;28;19925;-75
2022/03/24 06:37:55;;;;;;;;;;;6.40;99.90;;;;;;5000024;28;19942;-75
2022/03/24 06:40:22;;;;;;;;;;;6.50;99.90;;;;;;5014870;28;19925;-76
2022/03/24 06:42:49;;;;;;;;;;;6.60;99.90;;;;;;4999752;28;19929;-75
2022/03/24 06:45:16;;;;;;;;;;;6.70;99.90;;;;;;5014835;28;19925;-78
2022/03/24 06:47:42;;;;;;;;;;;6.80;99.90;;;;;;4996794;28;19925;-76
2022/03/24 06:50:10;;;;;;;;;;;7.00;99.90;;;;;;5012194;28;20297;-75
2022/03/24 06:52:36;;;;;;;;;;;7.20;99.90;;;;;;4995712;28;20124;-76
2022/03/24 06:55:03;;;;;;;;;;;7.30;99.90;;;;;;4998134;28;19983;-76
2022/03/24 06:57:29;;;;;;;;;;;7.50;99.90;;;;;;5015436;28;19930;-75
2022/03/24 06:59:56;;;;;;;;;;;7.70;99.90;;;;;;5012611;28;19933;-75
2022/03/24 07:02:22;;;;;;;;;;;7.90;99.90;;;;;;4998721;28;19933;-75
2022/03/24 07:04:49;;;;;;;;;;;8.10;99.90;;;;;;5013219;28;19925;-74
2022/03/24 07:07:15;;;;;;;;;;;8.30;99.90;;;;;;4996001;28;20272;-76
2022/03/24 07:09:42;;;;;;;;;;;8.40;99.90;;;;;;4993481;28;20391;-74
2022/03/24 07:12:08;;;;;;;;;;;8.60;99.90;;;;;;5012075;28;19929;-75
2022/03/24 07:14:35;;;;;;;;;;;8.70;99.90;;;;;;4996603;28;19933;-75
2022/03/24 07:17:01;;;;;;;;;;;8.90;99.90;;;;;;4995529;28;19926;-75
2022/03/24 07:19:28;;;;;;;;;;;9.10;99.90;;;;;;5000621;28;19929;-75
2022/03/24 07:21:54;;;;;;;;;;;9.30;99.90;;;;;;5015963;28;19925;-75
2022/03/24 07:24:21;;;;;;;;;;;9.40;99.90;;;;;;5020024;28;19925;-77
2022/03/24 07:26:47;;;;;;;;;;;9.50;99.90;;;;;;4997214;28;19930;-76
2022/03/24 07:29:14;;;;;;;;;;;9.50;99.90;;;;;;5023073;28;19929;-75
2022/03/24 07:31:41;;;;;;;;;;;9.60;99.90;;;;;;5019838;28;19925;-76
2022/03/24 07:34:07;;;;;;;;;;;9.70;99.90;;;;;;5018157;28;20580;-75
2022/03/24 07:36:34;;;;;;;;;;;10.00;99.90;;;;;;5018451;28;20377;-75
2022/03/24 07:39:00;;;;;;;;;;;10.20;99.90;;;;;;4999981;28;19933;-76
2022/03/24 07:41:29;;;;;;;;;;;10.30;99.90;;;;;;5004211;28;19932;-76
2022/03/24 07:43:56;;;;;;;;;;;10.50;99.90;;;;;;5023413;28;20438;-75
2022/03/24 07:46:22;;;;;;;;;;;10.70;99.90;;;;;;5014323;28;19941;-77
2022/03/24 07:48:49;;;;;;;;;;;10.90;99.90;;;;;;5018104;28;19945;-76
2022/03/24 07:51:15;;;;;;;;;;;11.00;99.90;;;;;;5017625;28;19925;-75
2022/03/24 07:53:42;;;;;;;;;;;11.20;99.90;;;;;;5016308;28;19929;-75
2022/03/24 07:56:09;;;;;;;;;;;11.30;99.90;;;;;;5023739;28;19932;-75
2022/03/24 07:58:36;;;;;;;;;;;11.50;99.90;;;;;;5000996;28;19980;-76
2022/03/24 08:01:02;;;;;;;;;;;11.60;99.90;;;;;;5020542;28;20008;-75
2022/03/24 08:03:29;;;;;;;;;;;11.70;99.90;;;;;;5018511;28;19925;-75
2022/03/24 08:05:56;;;;;;;;;;;11.90;99.90;;;;;;5015445;28;19926;-76
2022/03/24 08:08:22;;;;;;;;;;;12.00;99.90;;;;;;5017890;28;19926;-78
2022/03/24 08:10:49;;;;;;;;;;;12.10;99.90;;;;;;5018229;28;19925;-76
2022/03/24 08:13:16;;;;;;;;;;;12.20;99.90;;;;;;5000038;28;20381;-76
2022/03/24 08:15:43;;;;;;;;;;;12.30;99.90;;;;;;5020408;28;19947;-76
2022/03/24 08:18:09;;;;;;;;;;;12.40;99.90;;;;;;5017679;28;20011;-76
2022/03/24 08:20:36;;;;;;;;;;;12.60;99.90;;;;;;5016767;28;19926;-76
2022/03/24 08:23:03;;;;;;;;;;;12.70;99.90;;;;;;5017192;28;19925;-78
2022/03/24 08:25:29;;;;;;;;;;;12.80;99.90;;;;;;5008560;28;19948;-76
2022/03/24 08:27:56;;;;;;;;;;;12.90;99.90;;;;;;5025559;28;20284;-77
2022/03/24 08:30:22;;;;;;;;;;;13.00;99.90;;;;;;5030223;28;20301;-79
2022/03/24 08:32:49;;;;;;;;;;;13.10;99.90;;;;;;5016766;28;19925;-77
2022/03/24 08:35:15;;;;;;;;;;;13.20;99.70;;;;;;5025594;28;19925;-78
2022/03/24 08:37:42;;;;;;;;;;;13.20;98.90;;;;;;5018869;28;20120;-77
2022/03/24 08:40:09;;;;;;;;;;;13.20;97.80;;;;;;5014355;28;20273;-77
2022/03/24 08:42:36;;;;;;;;;;;13.20;98.80;;;;;;5018695;28;19925;-78
2022/03/24 08:45:02;;;;;;;;;;;13.40;99.20;;;;;;5021693;28;19925;-77
2022/03/24 08:47:29;;;;;;;;;;;13.60;98.30;;;;;;5016367;28;19933;-78
2022/03/24 08:49:56;;;;;;;;;;;13.60;98.40;;;;;;5020208;28;19925;-77
2022/03/24 08:52:22;;;;;;;;;;;13.80;98.20;;;;;;5025458;28;19925;-77
2022/03/24 08:54:49;;;;;;;;;;;13.90;97.70;;;;;;5015867;28;19925;-78
2022/03/24 08:57:16;;;;;;;;;;;14.00;98.10;;;;;;5019114;28;19925;-77
2022/03/24 08:59:42;;;;;;;;;;;14.00;97.90;;;;;;5011546;28;19948;-77
2022/03/24 09:02:09;;;;;;;;;;;14.10;97.30;;;;;;5004463;28;20644;-77
2022/03/24 09:04:35;;;;;;;;;;;14.20;97.00;;;;;;5023022;28;19925;-77
2022/03/24 09:07:02;;;;;;;;;;;14.30;96.90;;;;;;5029288;28;19925;-77
2022/03/24 09:09:28;;;;;;;;;;;14.40;95.40;;;;;;5020669;28;19929;-78
2022/03/24 09:11:55;;;;;;;;;;;14.50;96.80;;;;;;5013752;28;19925;-77
2022/03/24 09:14:22;;;;;;;;;;;14.80;95.40;;;;;;5016318;28;20273;-77
2022/03/24 09:16:48;;;;;;;;;;;14.80;94.20;;;;;;5016211;28;19933;-77
2022/03/24 09:19:15;;;;;;;;;;;14.90;94.00;;;;;;5014658;28;19925;-77
2022/03/24 09:21:41;;;;;;;;;;;14.80;94.50;;;;;;5014406;28;19925;-76
2022/03/24 09:24:08;;;;;;;;;;;14.90;93.90;;;;;;5025066;28;19936;-76
2022/03/24 09:26:36;;;;;;;;;;;15.10;94.30;;;;;;5025619;28;19925;-77
2022/03/24 09:29:02;;;;;;;;;;;15.20;95.70;;;;;;5030402;28;19931;-77
2022/03/24 09:31:29;;;;;;;;;;;15.20;92.20;;;;;;5021773;28;20346;-78
2022/03/24 09:33:56;;;;;;;;;;;15.20;93.30;;;;;;5031861;28;20372;-77
2022/03/24 09:36:22;;;;;;;;;;;15.40;93.90;;;;;;5026851;28;19952;-76
2022/03/24 09:38:49;;;;;;;;;;;15.30;94.00;;;;;;5022067;28;19960;-75
2022/03/24 09:41:16;;;;;;;;;;;15.10;92.50;;;;;;5026114;28;19925;-76
2022/03/24 09:43:43;;;;;;;;;;;15.20;90.90;;;;;;5020687;28;20030;-76
2022/03/24 09:46:09;;;;;;;;;;;15.30;93.10;;;;;;5022904;28;19926;-77
2022/03/24 09:48:36;;;;;;;;;;;15.40;92.10;;;;;;5026991;28;19925;-77
2022/03/24 09:51:03;;;;;;;;;;;15.40;91.70;;;;;;5016550;28;19926;-77
2022/03/24 09:53:29;;;;;;;;;;;15.60;91.70;;;;;;5020035;28;20896;-79
2022/03/24 09:55:56;;;;;;;;;;;15.60;91.00;;;;;;5029380;28;19929;-77
2022/03/24 09:58:22;;;;;;;;;;;15.60;91.20;;;;;;5008780;28;19929;-77
2022/03/24 10:00:49;;;;;;;;;;;15.80;90.10;;;;;;5018619;28;19925;-77
2022/03/24 10:03:15;;;;;;;;;;;15.80;89.00;;;;;;5006502;28;19926;-75
2022/03/24 10:05:42;;;;;;;;;;;15.80;90.30;;;;;;5023349;28;20418;-76
2022/03/24 10:08:08;;;;;;;;;;;16.00;89.90;;;;;;5001481;28;20406;-76
2022/03/24 10:10:37;;;;;;;;;;;16.10;86.40;;;;;;5020233;28;19933;-77
2022/03/24 10:13:04;;;;;;;;;;;15.60;87.70;;;;;;5022948;28;19929;-75
2022/03/24 10:15:30;;;;;;;;;;;15.70;90.10;;;;;;5020326;28;19935;-79
2022/03/24 10:17:58;;;;;;;;;;;15.90;88.70;;;;;;5004493;28;20335;-76
2022/03/24 10:20:24;;;;;;;;;;;16.10;88.10;;;;;;5029571;28;19925;-77
2022/03/24 10:22:51;;;;;;;;;;;16.00;89.90;;;;;;5022403;28;19925;-78
2022/03/24 10:25:17;;;;;;;;;;;15.90;90.20;;;;;;5030909;28;20300;-76
2022/03/24 10:27:44;;;;;;;;;;;16.10;90.30;;;;;;5025261;28;20327;-77
2022/03/24 10:30:10;;;;;;;;;;;15.90;88.80;;;;;;5024367;28;19931;-77
2022/03/24 10:32:37;;;;;;;;;;;15.80;90.70;;;;;;5018059;28;20443;-76
2022/03/24 10:35:04;;;;;;;;;;;16.10;90.40;;;;;;5014667;28;20029;-77
2022/03/24 10:37:30;;;;;;;;;;;16.10;90.40;;;;;;5002950;28;19929;-77
2022/03/24 10:39:57;;;;;;;;;;;16.40;89.10;;;;;;5004225;28;19926;-77
2022/03/24 10:42:23;;;;;;;;;;;16.70;84.00;;;;;;5016907;28;19925;-79
2022/03/24 10:44:50;;;;;;;;;;;16.70;81.60;;;;;;5001581;28;19925;-77
2022/03/24 10:47:16;;;;;;;;;;;16.50;79.80;;;;;;5022899;28;19931;-77
2022/03/24 10:49:43;;;;;;;;;;;16.30;80.10;;;;;;5023528;28;20003;-78
2022/03/24 10:52:10;;;;;;;;;;;16.60;79.30;;;;;;5020173;28;19931;-78
2022/03/24 10:54:37;;;;;;;;;;;16.60;79.90;;;;;;5022143;28;19954;-78
2022/03/24 10:57:03;;;;;;;;;;;16.60;79.90;;;;;;5004109;28;19932;-77
2022/03/24 10:59:30;;;;;;;;;;;16.60;78.50;;;;;;5014128;28;19925;-77
2022/03/24 11:01:56;;;;;;;;;;;16.60;78.20;;;;;;5007339;28;19933;-78
2022/03/24 11:04:23;;;;;;;;;;;16.60;76.10;;;;;;5030856;28;19939;-78
2022/03/24 11:06:49;;;;;;;;;;;16.60;75.90;;;;;;5011452;28;19929;-76
2022/03/24 11:09:16;;;;;;;;;;;16.60;75.60;;;;;;5032645;28;19948;-77
2022/03/24 11:11:42;;;;;;;;;;;16.70;73.10;;;;;;5024062;28;19925;-77
2022/03/24 11:14:09;;;;;;;;;;;16.70;73.40;;;;;;5032623;28;19940;-77
2022/03/24 11:16:36;;;;;;;;;;;16.70;73.70;;;;;;5009477;28;19926;-80
2022/03/24 11:19:02;;;;;;;;;;;16.90;72.30;;;;;;5022317;28;20390;-78
2022/03/24 11:21:29;;;;;;;;;;;17.00;69.40;;;;;;5024183;28;19929;-77
2022/03/24 11:23:55;;;;;;;;;;;17.00;69.90;;;;;;5020657;28;20113;-77
2022/03/24 11:26:22;;;;;;;;;;;16.70;70.20;;;;;;5024135;28;20380;-77
2022/03/24 11:28:50;;;;;;;;;;;17.10;66.20;;;;;;5033350;28;19936;-77
2022/03/24 11:31:16;;;;;;;;;;;17.10;67.40;;;;;;5028665;28;19925;-77
2022/03/24 11:33:43;;;;;;;;;;;17.20;66.30;;;;;;5024914;28;19933;-77
2022/03/24 11:36:09;;;;;;;;;;;17.20;67.30;;;;;;5025126;28;19929;-78
2022/03/24 11:38:36;;;;;;;;;;;17.10;66.90;;;;;;5028229;28;19925;-79
2022/03/24 11:41:02;;;;;;;;;;;17.20;66.80;;;;;;5033933;28;19925;-78
2022/03/24 11:43:29;;;;;;;;;;;17.20;67.80;;;;;;5032121;28;20403;-78
2022/03/24 11:45:58;;;;;;;;;;;17.20;69.90;;;;;;5017327;28;20403;-77
2022/03/24 11:48:25;;;;;;;;;;;17.20;71.50;;;;;;5019749;28;20257;-77
2022/03/24 11:50:52;;;;;;;;;;;17.30;70.80;;;;;;5018271;28;20403;-78
2022/03/24 11:53:18;;;;;;;;;;;17.50;67.00;;;;;;5019790;28;20406;-77
2022/03/24 11:55:45;;;;;;;;;;;17.50;67.90;;;;;;5016455;28;19948;-78
2022/03/24 11:58:11;;;;;;;;;;;17.60;68.20;;;;;;5016550;28;20292;-77
2022/03/24 12:00:39;;;;;;;;;;;17.70;65.30;;;;;;5022197;28;19924;-80
2022/03/24 12:03:06;;;;;;;;;;;17.90;65.50;;;;;;5023860;28;19972;-77
2022/03/24 12:05:32;;;;;;;;;;;17.90;65.20;;;;;;5027719;28;19933;-78
2022/03/24 12:07:59;;;;;;;;;;;17.80;65.00;;;;;;5027399;28;19925;-76
2022/03/24 12:10:26;;;;;;;;;;;17.70;62.10;;;;;;5025705;28;19925;-78
2022/03/24 12:12:52;;;;;;;;;;;17.70;63.40;;;;;;5033288;28;20265;-78
2022/03/24 12:15:19;;;;;;;;;;;17.70;62.50;;;;;;5021688;28;20284;-77
2022/03/24 12:17:45;;;;;;;;;;;17.80;62.80;;;;;;5029700;28;20292;-78
2022/03/24 12:20:12;;;;;;;;;;;17.80;63.00;;;;;;5007689;28;20369;-77
2022/03/24 12:22:38;;;;;;;;;;;17.80;59.30;;;;;;5026862;28;19933;-78
2022/03/24 12:25:05;;;;;;;;;;;17.70;61.00;;;;;;5030254;28;19932;-78
2022/03/24 12:27:31;;;;;;;;;;;17.90;61.50;;;;;;5034566;28;19925;-77
2022/03/24 12:29:58;;;;;;;;;;;18.00;63.90;;;;;;5011602;28;19930;-76
2022/03/24 12:32:24;;;;;;;;;;;17.90;62.80;;;;;;5020992;28;19925;-77
2022/03/24 12:34:51;;;;;;;;;;;17.70;60.70;;;;;;5021742;28;19932;-77
2022/03/24 12:37:18;;;;;;;;;;;17.90;59.90;;;;;;5023976;28;19925;-77
2022/03/24 12:39:44;;;;;;;;;;;18.00;60.60;;;;;;5019902;28;19925;-78
2022/03/24 12:42:12;;;;;;;;;;;18.00;61.30;;;;;;5035029;28;20397;-76
2022/03/24 12:44:38;;;;;;;;;;;18.00;61.60;;;;;;5025735;28;19979;-78
2022/03/24 12:47:05;;;;;;;;;;;17.90;61.00;;;;;;5032430;28;19925;-77
2022/03/24 12:49:31;;;;;;;;;;;18.10;64.00;;;;;;5024758;28;19933;-77
2022/03/24 12:52:02;;;;;;;;;;;17.90;65.50;;;;;;5026353;28;19925;-77
2022/03/24 12:54:29;;;;;;;;;;;17.80;65.70;;;;;;5018188;28;20295;-78
2022/03/24 12:56:55;;;;;;;;;;;17.60;72.30;;;;;;5025008;28;19925;-77
2022/03/24 12:59:22;;;;;;;;;;;17.60;72.80;;;;;;5024807;28;20293;-78
2022/03/24 13:01:48;;;;;;;;;;;17.70;71.60;;;;;;5029686;28;20280;-77
2022/03/24 13:04:15;;;;;;;;;;;17.80;71.60;;;;;;5021802;28;19925;-78
2022/03/24 13:06:42;;;;;;;;;;;17.60;72.10;;;;;;5029741;28;20430;-79
2022/03/24 13:09:08;;;;;;;;;;;17.60;71.50;;;;;;5023418;28;19972;-77
2022/03/24 13:11:35;;;;;;;;;;;17.40;73.60;;;;;;5019619;28;19933;-77
2022/03/24 13:14:01;;;;;;;;;;;17.40;70.70;;;;;;5026665;28;19932;-78
2022/03/24 13:16:28;;;;;;;;;;;17.40;69.80;;;;;;5032471;28;20376;-78
2022/03/24 13:18:55;;;;;;;;;;;17.30;69.80;;;;;;5021466;28;20364;-77
2022/03/24 13:21:21;;;;;;;;;;;17.30;68.60;;;;;;5023280;28;19933;-77
2022/03/24 13:23:48;;;;;;;;;;;17.30;70.00;;;;;;5017171;28;19925;-77
2022/03/24 13:26:15;;;;;;;;;;;16.90;68.10;;;;;;5011617;28;19929;-78
2022/03/24 13:28:41;;;;;;;;;;;17.20;68.70;;;;;;5021019;28;19932;-77
2022/03/24 13:31:08;;;;;;;;;;;17.30;68.90;;;;;;5028371;28;20396;-77
2022/03/24 13:33:35;;;;;;;;;;;17.30;68.30;;;;;;5029503;28;19975;-77
2022/03/24 13:36:01;;;;;;;;;;;17.30;68.70;;;;;;5015867;28;19971;-79
2022/03/24 13:38:28;;;;;;;;;;;17.30;67.50;;;;;;5032117;28;19932;-76
2022/03/24 13:40:56;;;;;;;;;;;17.50;66.50;;;;;;5028058;28;19933;-77
2022/03/24 13:43:22;;;;;;;;;;;17.40;66.90;;;;;;5024984;28;20284;-76
2022/03/24 13:45:49;;;;;;;;;;;17.50;66.50;;;;;;5026838;28;19925;-78
2022/03/24 13:48:17;;;;;;;;;;;17.50;65.40;;;;;;5006696;28;20365;-77
2022/03/24 13:50:44;;;;;;;;;;;17.50;65.70;;;;;;5030811;28;19932;-78
2022/03/24 13:53:11;;;;;;;;;;;17.60;64.60;;;;;;5032507;28;19929;-78
2022/03/24 13:55:37;;;;;;;;;;;17.60;64.70;;;;;;5024240;28;19931;-78
2022/03/24 13:58:04;;;;;;;;;;;17.40;63.90;;;;;;5029923;28;20395;-77
2022/03/24 14:00:31;;;;;;;;;;;17.70;65.20;;;;;;5028192;28;19929;-76
2022/03/24 14:02:58;;;;;;;;;;;17.70;64.70;;;;;;5028957;28;19925;-77
2022/03/24 14:05:24;;;;;;;;;;;17.70;61.80;;;;;;5006265;28;19932;-77
2022/03/24 14:07:51;;;;;;;;;;;17.70;64.10;;;;;;5007859;28;19944;-79
2022/03/24 14:10:17;;;;;;;;;;;17.70;62.50;;;;;;5029248;28;19929;-78
2022/03/24 14:12:44;;;;;;;;;;;17.70;62.80;;;;;;5027767;28;19933;-77
2022/03/24 14:15:10;;;;;;;;;;;17.70;65.20;;;;;;5015405;28;19933;-79
2022/03/24 14:17:37;;;;;;;;;;;17.80;63.30;;;;;;5011992;28;19933;-79
2022/03/24 14:20:04;;;;;;;;;;;17.80;65.70;;;;;;5027855;28;19925;-78